createdAt,value
2023-12-26T00:01:59.217Z,19.95
2023-12-26T00:07:21.119Z,19.91
2023-12-26T00:12:44.157Z,19.89
2023-12-26T00:18:06.307Z,19.86
2023-12-26T00:23:28.384Z,19.83
2023-12-26T00:28:50.568Z,19.80
2023-12-26T00:34:12.881Z,19.77
2023-12-26T00:39:35.865Z,19.75
2023-12-26T00:44:58.110Z,19.71
2023-12-26T00:50:20.143Z,19.69
2023-12-26T00:55:42.080Z,19.65
2023-12-26T01:01:04.172Z,19.63
2023-12-26T01:06:26.240Z,19.61
2023-12-26T01:11:48.471Z,19.58
2023-12-26T01:17:10.824Z,19.55
2023-12-26T01:22:32.824Z,19.53
2023-12-26T01:27:54.875Z,19.51
2023-12-26T01:33:17.080Z,19.49
2023-12-26T01:38:39.183Z,19.47
2023-12-26T01:44:01.322Z,19.45
2023-12-26T01:49:23.461Z,19.43
2023-12-26T01:54:45.546Z,19.41
2023-12-26T02:00:08.611Z,19.41
2023-12-26T02:05:31.192Z,19.38
2023-12-26T02:10:53.909Z,19.37
2023-12-26T02:16:22.966Z,19.36
2023-12-26T02:21:45.073Z,19.32
2023-12-26T02:27:07.446Z,19.32
2023-12-26T02:32:32.460Z,19.31
2023-12-26T02:37:55.220Z,19.29
2023-12-26T02:43:17.143Z,19.26
2023-12-26T02:48:39.213Z,19.25
2023-12-26T02:54:01.216Z,19.24
2023-12-26T02:59:23.318Z,19.22
2023-12-26T03:04:45.191Z,19.21
2023-12-26T03:10:10.552Z,19.20
2023-12-26T03:15:32.739Z,19.18
2023-12-26T03:20:54.724Z,19.17
2023-12-26T03:26:16.646Z,19.15
2023-12-26T03:31:46.677Z,19.16
2023-12-26T03:37:08.653Z,19.12
2023-12-26T03:42:30.574Z,19.11
2023-12-26T03:47:53.813Z,19.11
2023-12-26T03:53:16.544Z,19.08
2023-12-26T03:58:38.472Z,19.08
2023-12-26T04:04:00.748Z,19.06
2023-12-26T04:09:22.682Z,19.06
2023-12-26T04:14:44.637Z,19.04
2023-12-26T04:20:06.969Z,19.02
2023-12-26T04:25:28.829Z,19.02
2023-12-26T04:30:50.813Z,19.01
2023-12-26T04:36:12.840Z,19.00
2023-12-26T04:41:34.836Z,18.99
2023-12-26T04:46:56.897Z,18.97
2023-12-26T04:52:20.166Z,18.96
2023-12-26T04:57:42.069Z,18.95
2023-12-26T05:03:04.553Z,18.94
2023-12-26T05:08:26.921Z,18.93
2023-12-26T05:13:48.863Z,18.91
2023-12-26T05:19:10.989Z,18.90
2023-12-26T05:24:48.051Z,18.90
2023-12-26T05:30:13.796Z,18.88
2023-12-26T05:35:36.002Z,18.87
2023-12-26T05:40:57.987Z,18.85
2023-12-26T05:46:22.002Z,18.85
2023-12-26T05:51:44.658Z,18.85
2023-12-26T05:57:08.222Z,18.84
2023-12-26T06:02:30.426Z,18.83
2023-12-26T06:07:52.633Z,18.83
2023-12-26T06:13:14.593Z,18.94
2023-12-26T06:18:36.809Z,19.10
2023-12-26T06:23:59.057Z,19.21
2023-12-26T06:29:20.943Z,19.30
2023-12-26T06:34:42.915Z,19.40
2023-12-26T06:40:05.794Z,19.49
2023-12-26T06:45:28.255Z,19.57
2023-12-26T06:50:50.772Z,19.64
2023-12-26T06:56:12.747Z,19.66
2023-12-26T07:01:35.284Z,19.67
2023-12-26T07:06:57.270Z,19.66
2023-12-26T07:12:19.366Z,19.65
2023-12-26T07:17:41.617Z,19.64
2023-12-26T07:23:03.684Z,19.61
2023-12-26T07:28:25.752Z,19.58
2023-12-26T07:33:49.049Z,19.55
2023-12-26T07:39:14.632Z,19.52
2023-12-26T07:44:36.843Z,19.47
2023-12-26T07:49:59.133Z,19.45
2023-12-26T07:55:21.340Z,19.41
2023-12-26T08:00:43.508Z,19.40
2023-12-26T08:06:05.860Z,19.44
2023-12-26T08:11:28.057Z,19.48
2023-12-26T08:16:50.353Z,19.52
2023-12-26T08:22:12.582Z,19.54
2023-12-26T08:27:34.820Z,19.61
2023-12-26T08:32:57.285Z,19.73
2023-12-26T08:38:20.071Z,19.88
2023-12-26T08:43:42.037Z,20.07
2023-12-26T08:49:05.152Z,20.32
2023-12-26T08:54:27.576Z,20.52
2023-12-26T08:59:49.737Z,20.66
2023-12-26T09:05:13.023Z,20.72
2023-12-26T09:10:35.147Z,20.73
2023-12-26T09:16:02.712Z,20.71
2023-12-26T09:21:24.893Z,20.69
2023-12-26T09:26:47.080Z,20.63
2023-12-26T09:32:09.314Z,20.58
2023-12-26T09:37:36.518Z,20.51
2023-12-26T09:43:04.411Z,20.48
2023-12-26T09:48:26.683Z,20.45
2023-12-26T09:53:56.341Z,20.42
2023-12-26T09:59:20.751Z,20.37
2023-12-26T10:04:43.090Z,20.34
2023-12-26T10:10:06.993Z,20.31
2023-12-26T10:15:29.402Z,20.27
2023-12-26T10:20:51.509Z,20.25
2023-12-26T10:26:13.643Z,20.23
2023-12-26T10:31:35.944Z,20.22
2023-12-26T10:37:00.017Z,20.21
2023-12-26T10:42:22.403Z,20.21
2023-12-26T10:47:49.577Z,20.20
2023-12-26T10:53:17.739Z,20.20
2023-12-26T10:58:42.002Z,20.17
2023-12-26T11:05:00.313Z,20.16
2023-12-26T11:11:18.616Z,20.13
2023-12-26T11:17:17.866Z,20.10
2023-12-26T11:23:36.125Z,20.13
2023-12-26T11:29:35.473Z,20.08
2023-12-26T11:35:53.738Z,20.14
2023-12-26T11:42:11.754Z,20.18
2023-12-26T11:48:29.963Z,20.21
2023-12-26T11:54:29.583Z,20.18
2023-12-26T12:00:47.702Z,20.27
2023-12-26T12:07:06.271Z,20.34
2023-12-26T12:13:24.496Z,20.38
2023-12-26T12:19:24.204Z,20.40
2023-12-26T12:25:42.783Z,20.50
2023-12-26T12:32:01.422Z,20.54
2023-12-26T12:38:19.910Z,20.58
2023-12-26T12:44:38.241Z,20.61
2023-12-26T12:50:56.726Z,20.54
2023-12-26T12:57:15.032Z,20.40
2023-12-26T13:03:33.585Z,20.27
2023-12-26T13:09:52.212Z,20.18
2023-12-26T13:16:10.476Z,20.16
2023-12-26T13:22:09.666Z,20.07
2023-12-26T13:28:28.069Z,20.05
2023-12-26T13:34:46.450Z,20.01
2023-12-26T13:41:05.282Z,19.98
2023-12-26T13:47:23.815Z,19.98
2023-12-26T13:53:23.486Z,20.03
2023-12-26T13:59:23.560Z,20.09
2023-12-26T14:05:23.222Z,20.15
2023-12-26T14:11:23.769Z,20.19
2023-12-26T14:17:23.348Z,20.23
2023-12-26T14:23:22.736Z,20.23
2023-12-26T14:29:22.095Z,20.24
2023-12-26T14:35:21.331Z,20.22
2023-12-26T14:41:20.766Z,20.20
2023-12-26T14:47:19.977Z,20.14
2023-12-26T14:53:19.169Z,20.10
2023-12-26T14:59:18.611Z,20.07
2023-12-26T15:04:40.861Z,20.01
2023-12-26T15:10:03.075Z,19.98
2023-12-26T15:15:25.348Z,19.96
2023-12-26T15:20:47.540Z,19.91
2023-12-26T15:26:18.302Z,19.90
2023-12-26T15:31:40.511Z,19.85
2023-12-26T15:37:02.685Z,19.82
2023-12-26T15:42:24.870Z,19.80
2023-12-26T15:47:47.067Z,19.77
2023-12-26T15:53:09.249Z,19.76
2023-12-26T15:58:31.432Z,19.78
2023-12-26T16:03:57.887Z,19.80
2023-12-26T16:09:20.342Z,19.79
2023-12-26T16:14:42.451Z,19.81
2023-12-26T16:20:04.846Z,19.86
2023-12-26T16:25:27.167Z,19.95
2023-12-26T16:30:49.400Z,20.04
2023-12-26T16:36:12.221Z,20.15
2023-12-26T16:41:34.425Z,20.24
2023-12-26T16:46:58.442Z,20.32
2023-12-26T16:52:20.916Z,20.36
2023-12-26T16:57:42.802Z,20.37
2023-12-26T17:03:05.082Z,20.37
2023-12-26T17:08:28.444Z,20.35
2023-12-26T17:13:50.506Z,20.35
2023-12-26T17:19:12.802Z,20.39
2023-12-26T17:24:34.757Z,20.47
2023-12-26T17:29:56.779Z,20.58
2023-12-26T17:35:19.055Z,20.68
2023-12-26T17:40:41.299Z,20.75
2023-12-26T17:46:04.444Z,20.87
2023-12-26T17:51:26.732Z,21.00
2023-12-26T17:56:48.975Z,21.09
2023-12-26T18:02:13.628Z,21.18
2023-12-26T18:07:37.789Z,21.27
2023-12-26T18:12:59.895Z,21.35
2023-12-26T18:18:22.395Z,21.42
2023-12-26T18:23:44.596Z,21.46
2023-12-26T18:29:06.737Z,21.50
2023-12-26T18:34:29.209Z,21.60
2023-12-26T18:39:51.521Z,21.67
2023-12-26T18:45:14.047Z,21.68
2023-12-26T18:50:36.133Z,21.69
2023-12-26T18:55:58.774Z,21.73
2023-12-26T19:01:21.092Z,21.89
2023-12-26T19:06:45.036Z,22.09
2023-12-26T19:12:09.255Z,22.28
2023-12-26T19:17:31.568Z,22.42
2023-12-26T19:22:55.060Z,22.57
2023-12-26T19:28:19.327Z,22.64
2023-12-26T19:33:42.009Z,22.70
2023-12-26T19:39:05.573Z,22.74
2023-12-26T19:44:29.026Z,22.75
2023-12-26T19:49:51.631Z,22.72
2023-12-26T19:55:13.916Z,22.68
2023-12-26T20:00:36.134Z,22.63
2023-12-26T20:06:00.628Z,22.58
2023-12-26T20:11:22.920Z,22.51
2023-12-26T20:16:46.804Z,22.44
2023-12-26T20:22:08.854Z,22.36
2023-12-26T20:27:30.957Z,22.23
2023-12-26T20:32:54.063Z,22.08
2023-12-26T20:38:16.351Z,22.00
2023-12-26T20:43:38.616Z,21.94
2023-12-26T20:49:01.365Z,21.88
2023-12-26T20:54:24.290Z,21.86
2023-12-26T20:59:46.471Z,21.85
2023-12-26T21:05:09.392Z,21.85
2023-12-26T21:10:31.534Z,21.85
2023-12-26T21:15:54.088Z,21.80
2023-12-26T21:21:16.330Z,21.72
2023-12-26T21:26:38.494Z,21.65
2023-12-26T21:32:01.043Z,21.56
2023-12-26T21:37:23.282Z,21.48
2023-12-26T21:42:45.424Z,21.38
2023-12-26T21:48:07.766Z,21.29
2023-12-26T21:53:29.930Z,21.18
2023-12-26T21:58:51.889Z,21.10
2023-12-26T22:04:15.550Z,21.00
2023-12-26T22:09:37.970Z,20.93
2023-12-26T22:15:09.233Z,20.83
2023-12-26T22:20:39.298Z,20.75
2023-12-26T22:26:02.345Z,20.67
2023-12-26T22:31:24.582Z,20.61
2023-12-26T22:36:46.746Z,20.54
2023-12-26T22:42:08.891Z,20.50
2023-12-26T22:47:31.062Z,20.46
2023-12-26T22:52:53.621Z,20.42
2023-12-26T22:58:16.203Z,20.37
2023-12-26T23:03:39.459Z,20.30
2023-12-26T23:09:02.260Z,20.23
2023-12-26T23:14:24.451Z,20.18
2023-12-26T23:19:49.332Z,20.13
2023-12-26T23:25:14.717Z,20.07
2023-12-26T23:30:36.811Z,20.03
2023-12-26T23:35:59.092Z,19.97
2023-12-26T23:41:21.197Z,19.94
2023-12-26T23:46:46.172Z,19.88
2023-12-26T23:52:08.559Z,19.83
2023-12-26T23:57:30.718Z,19.79
